Time;durP1;ratioP1;P1;durP2;ratioP2;P2;SDS_P1;SDS_P2;PMS_P1;PMS_P2;Temp;Humidity;BMP_temperature;BMP_pressure;BME280_temperature;BME280_humidity;BME280_pressure;Samples;Min_cycle;Max_cycle;Signal;HPM_P1;HPM_P2
2023/08/03 00:00:40;;;;;;;0.00;0.00;;;15.70;99.90;;;;;;4984247;28;20352;-63
2023/08/03 00:03:06;;;;;;;0.77;0.03;;;15.70;99.90;;;;;;4983579;28;20104;-63
2023/08/03 00:05:32;;;;;;;0.08;0.00;;;15.70;99.90;;;;;;4976378;28;20038;-63
2023/08/03 00:07:57;;;;;;;0.28;0.05;;;15.60;99.90;;;;;;4984787;28;20100;-63
2023/08/03 00:10:23;;;;;;;0.10;0.00;;;15.70;99.90;;;;;;4982185;28;20046;-63
2023/08/03 00:12:50;;;;;;;0.00;0.00;;;15.70;99.90;;;;;;4981466;28;20066;-63
2023/08/03 00:15:17;;;;;;;0.38;0.10;;;15.70;99.90;;;;;;4977223;28;20466;-63
2023/08/03 00:17:44;;;;;;;0.10;0.00;;;15.70;99.90;;;;;;4980760;28;20613;-64
2023/08/03 00:20:10;;;;;;;1.75;0.15;;;15.70;99.90;;;;;;4983709;28;20252;-63
2023/08/03 00:22:36;;;;;;;0.10;0.00;;;15.70;99.90;;;;;;4977467;28;20046;-63
2023/08/03 00:25:03;;;;;;;0.00;0.00;;;15.70;99.90;;;;;;4977692;28;20406;-64
2023/08/03 00:27:29;;;;;;;0.08;0.00;;;15.70;99.90;;;;;;4980690;28;20107;-64
2023/08/03 00:29:55;;;;;;;0.28;0.28;;;15.70;99.90;;;;;;4982454;28;20049;-64
2023/08/03 00:32:21;;;;;;;0.30;0.08;;;15.70;99.90;;;;;;4982633;28;20558;-64
2023/08/03 00:34:47;;;;;;;0.30;0.00;;;15.70;99.90;;;;;;4984086;28;20360;-63
2023/08/03 00:37:14;;;;;;;0.00;0.00;;;15.70;99.90;;;;;;4981710;28;20074;-64
2023/08/03 00:39:40;;;;;;;0.00;0.00;;;15.60;99.90;;;;;;4980796;28;20039;-64
2023/08/03 00:42:06;;;;;;;0.00;0.00;;;15.70;99.90;;;;;;4976937;28;20125;-64
2023/08/03 00:44:33;;;;;;;0.10;0.00;;;15.60;99.90;;;;;;4979402;28;20411;-64
2023/08/03 00:46:59;;;;;;;0.00;0.00;;;15.60;99.90;;;;;;4981949;28;20038;-64
2023/08/03 00:49:28;;;;;;;0.28;0.00;;;15.60;99.90;;;;;;4983002;28;20071;-64
2023/08/03 00:51:55;;;;;;;0.88;0.35;;;15.60;99.90;;;;;;4975648;28;20204;-64
2023/08/03 00:54:21;;;;;;;0.55;0.20;;;15.70;99.90;;;;;;4980466;28;20038;-63
2023/08/03 00:56:47;;;;;;;0.00;0.00;;;15.60;99.90;;;;;;4983384;28;20400;-63
2023/08/03 00:59:13;;;;;;;0.00;0.00;;;15.60;99.90;;;;;;4983416;28;20046;-63
2023/08/03 01:01:40;;;;;;;0.20;0.00;;;15.60;99.90;;;;;;4983557;28;20090;-63
2023/08/03 01:04:05;;;;;;;0.00;0.00;;;15.60;99.90;;;;;;4978097;28;20038;-63
2023/08/03 01:06:31;;;;;;;0.00;0.00;;;15.70;99.90;;;;;;4982862;28;20039;-63
2023/08/03 01:08:59;;;;;;;0.00;0.00;;;15.60;99.90;;;;;;4985560;28;20037;-63
2023/08/03 01:11:26;;;;;;;0.17;0.00;;;15.70;99.90;;;;;;4982927;28;20030;-63
2023/08/03 01:13:51;;;;;;;0.00;0.00;;;15.70;99.90;;;;;;4976829;28;20050;-63
2023/08/03 01:16:17;;;;;;;0.00;0.00;;;15.60;99.90;;;;;;4983574;28;20371;-63
2023/08/03 01:18:43;;;;;;;0.00;0.00;;;15.70;99.90;;;;;;4979427;28;20137;-63
2023/08/03 01:21:10;;;;;;;0.47;0.20;;;15.70;99.90;;;;;;5001214;28;20053;-63
2023/08/03 01:23:36;;;;;;;0.00;0.00;;;15.70;99.90;;;;;;4980660;28;20193;-64
2023/08/03 01:26:01;;;;;;;0.00;0.00;;;15.70;99.90;;;;;;4987156;28;20133;-63
2023/08/03 01:28:27;;;;;;;0.05;0.00;;;15.70;99.90;;;;;;4980452;28;20830;-63
2023/08/03 01:30:53;;;;;;;0.00;0.00;;;15.70;99.90;;;;;;4980728;28;20109;-63
2023/08/03 01:33:19;;;;;;;0.00;0.00;;;15.70;99.90;;;;;;4978593;28;20113;-63
2023/08/03 01:35:45;;;;;;;0.00;0.00;;;15.70;99.90;;;;;;4985655;28;20046;-63
2023/08/03 01:38:12;;;;;;;0.17;0.00;;;15.70;99.90;;;;;;4988118;28;20394;-63
2023/08/03 01:40:38;;;;;;;0.00;0.00;;;15.70;99.90;;;;;;4988143;28;20046;-63
2023/08/03 01:43:04;;;;;;;0.00;0.00;;;15.70;99.90;;;;;;4984434;28;20058;-63
2023/08/03 01:45:29;;;;;;;0.00;0.00;;;15.70;99.90;;;;;;4984564;28;20042;-63
2023/08/03 01:47:55;;;;;;;0.00;0.00;;;15.70;99.90;;;;;;4985220;28;20875;-63
2023/08/03 01:50:21;;;;;;;0.00;0.00;;;15.80;99.90;;;;;;4977005;28;20546;-63
2023/08/03 01:52:48;;;;;;;0.08;0.00;;;15.70;99.90;;;;;;4981495;28;20430;-63
2023/08/03 01:55:14;;;;;;;0.00;0.00;;;15.80;99.90;;;;;;4984753;28;20051;-63
2023/08/03 01:57:40;;;;;;;0.00;0.00;;;15.80;99.90;;;;;;4989329;28;20060;-63
2023/08/03 02:00:06;;;;;;;0.00;0.00;;;15.80;99.90;;;;;;4989619;28;20039;-64
2023/08/03 02:02:32;;;;;;;0.00;0.00;;;15.80;99.90;;;;;;4986748;28;20101;-63
2023/08/03 02:04:58;;;;;;;0.00;0.00;;;15.80;99.90;;;;;;4984764;28;20038;-64
2023/08/03 02:07:44;;;;;;;0.10;0.00;;;15.80;99.90;;;;;;4983224;28;20038;-63
2023/08/03 02:10:10;;;;;;;0.00;0.00;;;15.80;99.90;;;;;;4989032;28;20447;-63
2023/08/03 02:12:36;;;;;;;0.05;0.00;;;15.80;99.90;;;;;;4984407;28;20073;-63
2023/08/03 02:15:04;;;;;;;0.10;0.05;;;15.80;99.90;;;;;;4986119;28;20046;-63
2023/08/03 02:17:29;;;;;;;0.32;0.13;;;15.80;99.90;;;;;;4985095;28;20117;-63
2023/08/03 02:19:55;;;;;;;0.32;0.10;;;15.80;99.90;;;;;;4978434;28;20141;-63
2023/08/03 02:22:21;;;;;;;0.00;0.00;;;15.80;99.90;;;;;;4984058;28;20449;-63
2023/08/03 02:24:47;;;;;;;0.00;0.00;;;15.80;99.90;;;;;;4980586;28;20113;-63
2023/08/03 02:27:12;;;;;;;0.00;0.00;;;15.80;99.90;;;;;;4936502;28;1098951;-63
2023/08/03 02:29:38;;;;;;;0.00;0.00;;;15.80;99.90;;;;;;4961967;28;20045;-64
2023/08/03 02:32:04;;;;;;;0.08;0.00;;;15.80;99.90;;;;;;4963793;28;20078;-63
2023/08/03 02:34:30;;;;;;;0.10;0.00;;;15.80;99.90;;;;;;4965562;28;20047;-64
2023/08/03 02:36:55;;;;;;;0.00;0.00;;;15.80;99.90;;;;;;4964287;28;20047;-63
2023/08/03 02:39:21;;;;;;;0.95;0.10;;;15.80;99.90;;;;;;4967102;28;20115;-63
2023/08/03 02:41:46;;;;;;;0.10;0.00;;;15.80;99.90;;;;;;4964163;28;20035;-63
2023/08/03 02:44:12;;;;;;;0.10;0.10;;;15.80;99.90;;;;;;4965708;28;20259;-63
2023/08/03 02:46:38;;;;;;;0.03;0.03;;;15.80;99.90;;;;;;4965950;28;20035;-63
2023/08/03 02:49:03;;;;;;;0.15;0.00;;;15.90;99.90;;;;;;4968665;28;20036;-62
2023/08/03 02:51:30;;;;;;;0.15;0.00;;;15.80;99.90;;;;;;4966973;28;20050;-63
2023/08/03 02:53:56;;;;;;;0.10;0.00;;;15.80;99.90;;;;;;4965359;28;20039;-62
2023/08/03 02:56:21;;;;;;;0.05;0.00;;;15.90;99.90;;;;;;4944572;28;20106;-62
2023/08/03 02:58:47;;;;;;;0.17;0.10;;;15.90;99.90;;;;;;4971607;28;20035;-63
2023/08/03 03:01:13;;;;;;;0.10;0.10;;;15.90;99.90;;;;;;4965164;28;20043;-63
2023/08/03 03:03:39;;;;;;;0.52;0.10;;;15.90;99.90;;;;;;4966843;28;20113;-62
2023/08/03 03:06:05;;;;;;;0.13;0.10;;;15.90;99.90;;;;;;4961867;28;20047;-63
2023/08/03 03:08:31;;;;;;;0.00;0.00;;;15.90;99.90;;;;;;4967005;28;20089;-63
2023/08/03 03:10:57;;;;;;;0.52;0.20;;;15.90;99.90;;;;;;4966464;28;20105;-62
2023/08/03 03:13:23;;;;;;;0.63;0.10;;;15.90;99.90;;;;;;4961448;28;20459;-63
2023/08/03 03:15:49;;;;;;;0.10;0.10;;;16.00;99.90;;;;;;4966215;28;20058;-63
2023/08/03 03:18:15;;;;;;;0.43;0.10;;;16.00;99.90;;;;;;4951961;28;20078;-62
2023/08/03 03:20:40;;;;;;;0.52;0.20;;;16.00;99.90;;;;;;4964740;28;20085;-62
2023/08/03 03:23:06;;;;;;;0.00;0.00;;;16.00;99.90;;;;;;4936751;28;20058;-63
2023/08/03 03:25:32;;;;;;;0.10;0.10;;;16.00;99.90;;;;;;4973915;28;20031;-63
2023/08/03 03:28:04;;;;;;;0.75;0.17;;;16.00;99.90;;;;;;4978538;28;20109;-63
2023/08/03 03:30:32;;;;;;;0.00;0.00;;;16.00;99.90;;;;;;4984457;28;20509;-63
2023/08/03 03:32:58;;;;;;;0.43;0.00;;;16.00;99.90;;;;;;4978588;28;20070;-63
2023/08/03 03:35:23;;;;;;;0.15;0.10;;;16.00;99.90;;;;;;4983306;28;20640;-62
2023/08/03 03:37:49;;;;;;;0.13;0.10;;;16.00;99.90;;;;;;4981063;28;20133;-63
2023/08/03 03:40:15;;;;;;;0.10;0.10;;;16.00;99.90;;;;;;4986288;28;20398;-63
2023/08/03 03:42:40;;;;;;;0.10;0.08;;;15.90;99.90;;;;;;4980070;28;20053;-63
2023/08/03 03:45:07;;;;;;;0.10;0.10;;;16.00;99.90;;;;;;4980856;28;20073;-63
2023/08/03 03:47:33;;;;;;;0.25;0.22;;;15.90;99.90;;;;;;4981583;28;20241;-62
2023/08/03 03:49:59;;;;;;;0.32;0.25;;;15.90;99.90;;;;;;4987763;28;20344;-63
2023/08/03 03:52:25;;;;;;;0.75;0.10;;;15.80;99.90;;;;;;4989739;28;20040;-63
2023/08/03 03:54:51;;;;;;;0.17;0.08;;;15.80;99.90;;;;;;4981462;28;20128;-63
2023/08/03 03:57:16;;;;;;;0.85;0.10;;;15.80;99.90;;;;;;4982612;28;20119;-63
2023/08/03 03:59:42;;;;;;;0.32;0.10;;;15.80;99.90;;;;;;4986151;28;20038;-63
2023/08/03 04:02:08;;;;;;;0.17;0.05;;;15.80;99.90;;;;;;4976768;28;20043;-63
2023/08/03 04:04:34;;;;;;;0.52;0.00;;;15.80;99.90;;;;;;4978662;28;20161;-63
2023/08/03 04:06:59;;;;;;;0.10;0.10;;;15.80;99.90;;;;;;4982073;28;20038;-63
2023/08/03 04:09:25;;;;;;;0.00;0.00;;;15.80;99.90;;;;;;4985197;28;20160;-64
2023/08/03 04:11:50;;;;;;;0.13;0.03;;;15.80;99.90;;;;;;4979678;28;20045;-63
2023/08/03 04:14:16;;;;;;;0.20;0.10;;;15.80;99.90;;;;;;4978126;28;20467;-63
2023/08/03 04:16:42;;;;;;;0.00;0.00;;;15.90;99.90;;;;;;4981908;28;20121;-64
2023/08/03 04:19:07;;;;;;;0.00;0.00;;;15.80;99.90;;;;;;4981654;28;20038;-64
2023/08/03 04:21:33;;;;;;;0.40;0.10;;;15.80;99.90;;;;;;4976025;28;20364;-63
2023/08/03 04:23:59;;;;;;;0.40;0.10;;;15.80;99.90;;;;;;4976894;28;20394;-63
2023/08/03 04:26:24;;;;;;;0.55;0.05;;;15.80;99.90;;;;;;4983780;28;20045;-63
2023/08/03 04:28:50;;;;;;;3.92;0.10;;;15.80;99.90;;;;;;4979956;28;20121;-63
2023/08/03 04:31:16;;;;;;;0.17;0.10;;;15.80;99.90;;;;;;4975695;28;20049;-64
2023/08/03 04:33:41;;;;;;;0.08;0.08;;;15.80;99.90;;;;;;4980382;28;20478;-63
2023/08/03 04:36:07;;;;;;;0.00;0.00;;;15.90;99.90;;;;;;4983797;28;20580;-63
2023/08/03 04:38:33;;;;;;;0.10;0.10;;;15.80;99.90;;;;;;4987334;28;20065;-63
2023/08/03 04:41:01;;;;;;;0.85;0.15;;;15.90;99.90;;;;;;4988415;28;20113;-63
2023/08/03 04:43:28;;;;;;;0.20;0.00;;;15.90;99.90;;;;;;4980820;28;20483;-63
2023/08/03 04:45:53;;;;;;;0.00;0.00;;;15.80;99.90;;;;;;4981067;28;20038;-63
2023/08/03 04:48:19;;;;;;;0.00;0.00;;;15.80;99.90;;;;;;4979232;28;20131;-63
2023/08/03 04:50:45;;;;;;;0.00;0.00;;;15.80;99.90;;;;;;4976054;28;20046;-63
2023/08/03 04:53:11;;;;;;;0.00;0.00;;;15.80;99.90;;;;;;4982510;28;20045;-63
2023/08/03 04:55:36;;;;;;;0.00;0.00;;;15.80;99.90;;;;;;4981575;28;20082;-63
2023/08/03 04:58:02;;;;;;;0.15;0.10;;;15.70;99.90;;;;;;4980612;28;20071;-63
2023/08/03 05:00:28;;;;;;;2.17;0.20;;;15.80;99.90;;;;;;4975578;28;20046;-63
2023/08/03 05:02:54;;;;;;;0.00;0.00;;;15.80;99.90;;;;;;4981514;28;20046;-63
2023/08/03 05:05:19;;;;;;;0.00;0.00;;;15.80;99.90;;;;;;4981586;28;20376;-63
2023/08/03 05:07:45;;;;;;;0.00;0.00;;;15.80;99.90;;;;;;4979625;28;20122;-63
2023/08/03 05:10:11;;;;;;;0.00;0.00;;;15.80;99.90;;;;;;4986919;28;20327;-63
2023/08/03 05:12:39;;;;;;;0.00;0.00;;;15.80;99.90;;;;;;4981294;28;20047;-64
2023/08/03 05:15:05;;;;;;;0.22;0.10;;;15.80;99.90;;;;;;4984246;28;20153;-64
2023/08/03 05:17:31;;;;;;;0.10;0.10;;;15.90;99.90;;;;;;4993927;28;20069;-64
2023/08/03 05:19:57;;;;;;;0.00;0.00;;;16.00;99.90;;;;;;4979577;28;20128;-63
2023/08/03 05:22:22;;;;;;;0.00;0.00;;;16.00;99.90;;;;;;4979050;28;20604;-63
2023/08/03 05:24:48;;;;;;;0.63;0.30;;;16.00;99.90;;;;;;4984811;28;20136;-63
2023/08/03 05:27:14;;;;;;;0.00;0.00;;;16.10;99.90;;;;;;4975526;28;20055;-63
2023/08/03 05:29:43;;;;;;;0.10;0.03;;;16.20;99.90;;;;;;4980652;28;20493;-62
2023/08/03 05:32:08;;;;;;;0.00;0.00;;;16.30;99.90;;;;;;4984761;28;20061;-63
2023/08/03 05:34:34;;;;;;;6.03;3.03;;;16.30;99.90;;;;;;4983367;28;20045;-63
2023/08/03 05:37:00;;;;;;;2.53;0.30;;;16.40;99.90;;;;;;4976207;28;20039;-63
2023/08/03 05:39:27;;;;;;;0.82;0.10;;;16.60;99.90;;;;;;5000431;28;20081;-63
2023/08/03 05:41:52;;;;;;;0.20;0.10;;;16.70;99.90;;;;;;4983201;28;20034;-62
2023/08/03 05:44:18;;;;;;;0.15;0.05;;;16.80;99.90;;;;;;4981804;28;20039;-63
2023/08/03 05:46:44;;;;;;;0.10;0.00;;;16.90;99.90;;;;;;4985979;28;20070;-62
2023/08/03 05:49:11;;;;;;;0.00;0.00;;;17.00;99.90;;;;;;4987215;28;20043;-63
2023/08/03 05:51:39;;;;;;;0.20;0.10;;;17.00;99.90;;;;;;4983295;28;20066;-63
2023/08/03 05:54:05;;;;;;;0.10;0.00;;;17.00;99.90;;;;;;4980624;28;20043;-63
2023/08/03 05:56:34;;;;;;;0.10;0.10;;;17.10;99.90;;;;;;4975391;28;20546;-62
2023/08/03 05:59:02;;;;;;;1.17;0.10;;;17.10;99.90;;;;;;4978266;28;20042;-62
2023/08/03 06:01:28;;;;;;;0.00;0.00;;;17.10;99.90;;;;;;4979193;28;20454;-62
2023/08/03 06:03:54;;;;;;;0.28;0.20;;;17.20;99.90;;;;;;4980005;28;20182;-62
2023/08/03 06:06:21;;;;;;;0.00;0.00;;;17.20;99.90;;;;;;4980042;28;20511;-62
2023/08/03 06:08:52;;;;;;;0.10;0.00;;;17.30;99.90;;;;;;4986884;28;20045;-63
2023/08/03 06:11:20;;;;;;;0.20;0.08;;;17.30;99.90;;;;;;4985389;28;20043;-62
2023/08/03 06:13:47;;;;;;;0.03;0.00;;;17.30;99.90;;;;;;4986659;28;20268;-63
2023/08/03 06:16:14;;;;;;;0.22;0.10;;;17.40;99.90;;;;;;4979604;28;20034;-62
2023/08/03 06:18:50;;;;;;;0.00;0.00;;;17.50;99.90;;;;;;4988330;28;20446;-62
2023/08/03 06:21:17;;;;;;;0.00;0.00;;;17.60;99.90;;;;;;4986622;28;20124;-62
2023/08/03 06:23:47;;;;;;;0.08;0.08;;;17.70;99.90;;;;;;4988605;28;20050;-63
2023/08/03 06:26:16;;;;;;;1.25;0.40;;;17.60;99.90;;;;;;4982725;28;20050;-63
2023/08/03 06:28:43;;;;;;;0.05;0.00;;;17.60;99.90;;;;;;4981632;28;20050;-62
2023/08/03 06:31:19;;;;;;;0.00;0.00;;;17.60;99.90;;;;;;4987907;28;20039;-63
2023/08/03 06:33:47;;;;;;;0.17;0.10;;;17.60;99.90;;;;;;4981694;28;20125;-63
2023/08/03 06:36:20;;;;;;;0.20;0.00;;;17.60;99.90;;;;;;4984215;28;20372;-62
2023/08/03 06:38:47;;;;;;;0.00;0.00;;;17.70;99.90;;;;;;4985288;28;20042;-63
2023/08/03 06:41:13;;;;;;;0.03;0.00;;;17.80;99.90;;;;;;4987859;28;20042;-62
2023/08/03 06:43:39;;;;;;;0.30;0.10;;;17.80;99.90;;;;;;4990237;28;20124;-62
2023/08/03 06:46:05;;;;;;;0.70;0.30;;;18.00;99.90;;;;;;4980493;28;20039;-63
2023/08/03 06:48:32;;;;;;;0.05;0.00;;;18.00;99.90;;;;;;4983388;28;20089;-62
2023/08/03 06:50:59;;;;;;;0.20;0.05;;;18.00;99.90;;;;;;4983839;28;20054;-62
2023/08/03 06:53:25;;;;;;;0.00;0.00;;;18.00;99.90;;;;;;4976194;28;20058;-63
2023/08/03 06:55:51;;;;;;;0.57;0.15;;;17.90;99.90;;;;;;4982930;28;20042;-62
2023/08/03 06:58:17;;;;;;;0.25;0.10;;;18.00;99.90;;;;;;4983844;28;20096;-63
2023/08/03 07:00:44;;;;;;;0.10;0.10;;;18.00;99.90;;;;;;4986009;28;20050;-62
2023/08/03 07:03:11;;;;;;;2.85;0.10;;;18.10;99.90;;;;;;4979187;28;20287;-63
2023/08/03 07:05:37;;;;;;;0.20;0.05;;;18.10;99.90;;;;;;4979761;28;20689;-63
2023/08/03 07:08:03;;;;;;;0.00;0.00;;;18.10;99.90;;;;;;4985856;28;20134;-63
2023/08/03 07:10:29;;;;;;;0.08;0.00;;;18.10;99.90;;;;;;4981748;28;20117;-62
2023/08/03 07:12:55;;;;;;;0.32;0.03;;;18.10;99.90;;;;;;4979376;28;20625;-63
2023/08/03 07:15:20;;;;;;;0.22;0.00;;;18.00;99.90;;;;;;4979276;28;20133;-63
2023/08/03 07:17:47;;;;;;;0.10;0.00;;;18.10;99.90;;;;;;4985305;28;20034;-63
2023/08/03 07:20:13;;;;;;;0.08;0.00;;;18.10;99.90;;;;;;4978163;28;20054;-63
2023/08/03 07:22:39;;;;;;;0.32;0.00;;;18.10;99.90;;;;;;4979778;28;20104;-62
2023/08/03 07:25:05;;;;;;;0.00;0.00;;;18.10;99.90;;;;;;4984275;28;20467;-62
2023/08/03 07:27:32;;;;;;;0.28;0.20;;;18.20;99.90;;;;;;4976604;28;20082;-63
2023/08/03 07:29:58;;;;;;;0.90;0.00;;;18.30;99.90;;;;;;4966976;28;20046;-62
2023/08/03 07:32:24;;;;;;;0.00;0.00;;;18.30;99.90;;;;;;4965541;28;20069;-62
2023/08/03 07:34:50;;;;;;;0.30;0.30;;;18.30;99.90;;;;;;4961104;28;20520;-63
2023/08/03 07:37:16;;;;;;;0.00;0.00;;;18.40;99.90;;;;;;4969220;28;20036;-62
2023/08/03 07:39:42;;;;;;;0.10;0.00;;;18.40;99.90;;;;;;4965396;28;20038;-62
2023/08/03 07:42:07;;;;;;;0.00;0.00;;;18.50;99.90;;;;;;4964524;28;20038;-61
2023/08/03 07:44:33;;;;;;;0.20;0.10;;;18.60;99.90;;;;;;4967115;28;20034;-62
2023/08/03 07:46:59;;;;;;;0.15;0.00;;;18.70;99.90;;;;;;4965529;28;20090;-62
2023/08/03 07:49:25;;;;;;;0.03;0.00;;;18.80;99.90;;;;;;4970805;28;20414;-62
2023/08/03 07:51:50;;;;;;;0.00;0.00;;;18.90;99.90;;;;;;4956741;28;20061;-63
2023/08/03 07:54:16;;;;;;;0.00;0.00;;;18.90;99.90;;;;;;4969069;28;20030;-63
2023/08/03 07:56:42;;;;;;;0.50;0.00;;;19.00;99.90;;;;;;4965635;28;20038;-62
2023/08/03 07:59:10;;;;;;;0.70;0.25;;;19.00;99.90;;;;;;4968113;28;20046;-63
2023/08/03 08:01:36;;;;;;;0.00;0.00;;;19.10;99.90;;;;;;4964003;28;20050;-61
2023/08/03 08:04:02;;;;;;;0.00;0.00;;;19.20;99.90;;;;;;4966933;28;20043;-62
2023/08/03 08:06:28;;;;;;;0.00;0.00;;;19.30;99.90;;;;;;4964510;28;20478;-62
2023/08/03 08:08:54;;;;;;;0.00;0.00;;;19.40;99.90;;;;;;4972806;28;20123;-62
2023/08/03 08:11:20;;;;;;;0.00;0.00;;;19.30;99.90;;;;;;4957220;28;20122;-62
2023/08/03 08:13:46;;;;;;;1.00;0.03;;;19.40;99.90;;;;;;4965039;28;20114;-63
2023/08/03 08:16:14;;;;;;;0.63;0.10;;;19.30;99.90;;;;;;4961445;28;20113;-63
2023/08/03 08:18:40;;;;;;;0.00;0.00;;;19.30;99.90;;;;;;4962315;28;20056;-63
2023/08/03 08:21:08;;;;;;;0.00;0.00;;;19.30;99.90;;;;;;4959000;28;20039;-63
2023/08/03 08:23:35;;;;;;;0.08;0.00;;;19.40;99.90;;;;;;4962969;28;20050;-63
2023/08/03 08:26:02;;;;;;;0.52;0.10;;;19.70;99.90;;;;;;4965356;28;20043;-63
2023/08/03 08:28:29;;;;;;;0.00;0.00;;;20.00;99.90;;;;;;4969942;28;20054;-63
2023/08/03 08:30:54;;;;;;;0.00;0.00;;;20.10;99.90;;;;;;4982825;28;20078;-63
2023/08/03 08:33:21;;;;;;;0.77;0.10;;;20.10;99.90;;;;;;4982206;28;20514;-63
2023/08/03 08:35:49;;;;;;;0.00;0.00;;;20.00;99.90;;;;;;4984487;28;20039;-63
2023/08/03 08:38:17;;;;;;;3.95;0.30;;;20.10;99.90;;;;;;4989393;28;20499;-64
2023/08/03 08:40:44;;;;;;;1.80;0.20;;;20.10;99.90;;;;;;4984235;28;20518;-64
2023/08/03 08:43:10;;;;;;;0.43;0.00;;;20.30;99.90;;;;;;4979754;28;20451;-64
2023/08/03 08:45:37;;;;;;;0.00;0.00;;;20.50;99.90;;;;;;4984083;28;20068;-63
2023/08/03 08:48:04;;;;;;;0.00;0.00;;;20.50;99.90;;;;;;4988381;28;20034;-64
2023/08/03 08:50:31;;;;;;;0.22;0.10;;;20.50;99.90;;;;;;4983496;28;20125;-64
2023/08/03 08:52:57;;;;;;;0.00;0.00;;;20.70;99.90;;;;;;4981122;28;20126;-64
2023/08/03 08:55:25;;;;;;;0.35;0.00;;;20.90;99.90;;;;;;4982067;28;20110;-64
2023/08/03 08:57:51;;;;;;;0.00;0.00;;;21.10;99.90;;;;;;4976052;28;20046;-64
2023/08/03 09:00:18;;;;;;;0.10;0.00;;;21.40;99.90;;;;;;4980006;28;20065;-64
2023/08/03 09:02:44;;;;;;;0.55;0.00;;;21.70;99.90;;;;;;4982658;28;20129;-64
2023/08/03 09:05:14;;;;;;;0.00;0.00;;;21.80;99.90;;;;;;4978128;28;20118;-64
2023/08/03 09:07:41;;;;;;;0.25;0.05;;;22.20;99.90;;;;;;4974262;28;20047;-65
2023/08/03 09:10:07;;;;;;;0.20;0.00;;;22.60;99.90;;;;;;4978572;28;20038;-64
2023/08/03 09:12:33;;;;;;;0.55;0.20;;;22.80;99.90;;;;;;4981055;28;20101;-65
2023/08/03 09:14:59;;;;;;;0.00;0.00;;;22.70;99.90;;;;;;4981978;28;20031;-65
2023/08/03 09:17:26;;;;;;;0.20;0.00;;;22.80;99.90;;;;;;4975021;28;20117;-65
2023/08/03 09:19:52;;;;;;;0.55;0.00;;;22.80;99.90;;;;;;4985202;28;20088;-65
2023/08/03 09:22:19;;;;;;;0.00;0.00;;;23.00;99.90;;;;;;4983676;28;20499;-65
2023/08/03 09:24:48;;;;;;;0.05;0.00;;;22.80;99.90;;;;;;4987454;28;20084;-65
2023/08/03 09:27:17;;;;;;;0.10;0.00;;;22.90;99.90;;;;;;4979497;28;20148;-65
2023/08/03 09:29:43;;;;;;;0.00;0.00;;;22.90;99.90;;;;;;4959761;28;20400;-65
2023/08/03 09:32:11;;;;;;;0.35;0.10;;;22.90;99.90;;;;;;4964531;28;20061;-65
2023/08/03 09:34:42;;;;;;;0.00;0.00;;;23.00;99.90;;;;;;4955149;28;20047;-65
2023/08/03 09:37:09;;;;;;;0.05;0.00;;;23.20;99.90;;;;;;4971552;28;20043;-65
2023/08/03 09:39:38;;;;;;;0.20;0.20;;;23.20;99.90;;;;;;4963581;28;20431;-65
2023/08/03 09:42:05;;;;;;;0.03;0.00;;;23.30;99.90;;;;;;4964599;28;20057;-65
2023/08/03 09:44:36;;;;;;;0.00;0.00;;;23.50;99.90;;;;;;4959613;28;20054;-65
2023/08/03 09:47:03;;;;;;;0.00;0.00;;;23.60;99.90;;;;;;4970189;28;20050;-65
2023/08/03 09:49:29;;;;;;;0.40;0.20;;;23.70;99.90;;;;;;4952913;28;20452;-66
2023/08/03 09:51:59;;;;;;;0.00;0.00;;;23.50;99.90;;;;;;4972135;28;20042;-65
2023/08/03 09:54:35;;;;;;;1.05;0.10;;;23.50;99.90;;;;;;4965191;28;20051;-65
2023/08/03 09:57:07;;;;;;;0.13;0.00;;;23.30;99.90;;;;;;4969882;28;20113;-66
2023/08/03 09:59:36;;;;;;;0.00;0.00;;;23.10;99.90;;;;;;4965283;28;20070;-66
2023/08/03 10:02:05;;;;;;;0.15;0.00;;;23.00;99.90;;;;;;4954524;28;20089;-65
2023/08/03 10:04:38;;;;;;;0.00;0.00;;;23.20;99.90;;;;;;4966291;28;20035;-65
2023/08/03 10:07:08;;;;;;;0.00;0.00;;;23.40;99.90;;;;;;4966308;28;20093;-65
2023/08/03 10:09:47;;;;;;;0.05;0.00;;;23.60;99.90;;;;;;4966361;28;20035;-65
2023/08/03 10:12:17;;;;;;;0.08;0.00;;;23.80;99.90;;;;;;4970117;28;20037;-65
2023/08/03 10:14:45;;;;;;;0.40;0.10;;;23.90;99.90;;;;;;4963591;28;20035;-66
2023/08/03 10:17:12;;;;;;;0.10;0.00;;;23.80;99.90;;;;;;4969531;28;20121;-66
2023/08/03 10:19:39;;;;;;;0.00;0.00;;;23.70;99.90;;;;;;4950076;28;20035;-66
2023/08/03 10:22:08;;;;;;;1.27;0.10;;;23.80;99.90;;;;;;4964482;28;20043;-66
2023/08/03 10:24:34;;;;;;;0.20;0.10;;;24.00;99.90;;;;;;4972038;28;20094;-66
2023/08/03 10:27:18;;;;;;;0.30;0.00;;;24.40;99.90;;;;;;4965243;28;20424;-66
2023/08/03 10:29:49;;;;;;;0.10;0.10;;;24.60;99.90;;;;;;4987769;28;20140;-66
2023/08/03 10:32:27;;;;;;;0.43;0.20;;;24.60;99.90;;;;;;4979073;28;20050;-66
2023/08/03 10:34:58;;;;;;;0.00;0.00;;;24.60;99.90;;;;;;4979940;28;20122;-66
2023/08/03 10:37:24;;;;;;;0.00;0.00;;;24.60;99.90;;;;;;4985433;28;20043;-66
2023/08/03 10:39:59;;;;;;;0.68;0.00;;;24.40;99.90;;;;;;4988075;28;20037;-66
2023/08/03 10:42:34;;;;;;;0.20;0.00;;;24.40;99.90;;;;;;4978041;28;20107;-66
2023/08/03 10:45:21;;;;;;;0.50;0.20;;;24.30;99.90;;;;;;4979449;28;20050;-66
2023/08/03 10:47:47;;;;;;;0.75;0.10;;;24.40;99.90;;;;;;4984083;28;20043;-66
2023/08/03 10:50:13;;;;;;;1.65;0.00;;;24.60;99.90;;;;;;4986643;28;20494;-65
2023/08/03 10:52:38;;;;;;;0.00;0.00;;;24.80;99.90;;;;;;4974395;28;20314;-66
2023/08/03 10:55:26;;;;;;;0.10;0.10;;;24.90;99.90;;;;;;4983035;28;20133;-66
2023/08/03 10:57:55;;;;;;;0.10;0.00;;;24.90;99.90;;;;;;4984240;28;20090;-66
2023/08/03 11:00:21;;;;;;;0.45;0.13;;;24.90;99.90;;;;;;4980273;28;20039;-66
2023/08/03 11:02:47;;;;;;;0.57;0.17;;;24.90;99.90;;;;;;4977951;28;20164;-66
2023/08/03 11:05:13;;;;;;;0.00;0.00;;;24.90;99.90;;;;;;4984500;28;20038;-65
2023/08/03 11:07:41;;;;;;;0.90;0.10;;;24.50;99.90;;;;;;4984925;28;20069;-65
2023/08/03 11:10:12;;;;;;;0.05;0.00;;;24.00;99.90;;;;;;4983331;28;20118;-65
2023/08/03 11:12:39;;;;;;;0.40;0.00;;;23.50;99.90;;;;;;4976968;28;20043;-65
2023/08/03 11:15:06;;;;;;;0.00;0.00;;;23.30;99.90;;;;;;4983364;28;20082;-65
2023/08/03 11:17:34;;;;;;;0.13;0.10;;;23.40;99.90;;;;;;4981036;28;20550;-66
2023/08/03 11:20:02;;;;;;;0.60;0.10;;;23.80;99.90;;;;;;4981799;28;20043;-66
2023/08/03 11:22:28;;;;;;;0.00;0.00;;;24.10;99.90;;;;;;4979432;28;20050;-66
2023/08/03 11:24:56;;;;;;;0.00;0.00;;;24.20;99.90;;;;;;4985647;28;20042;-66
2023/08/03 11:27:23;;;;;;;0.10;0.00;;;24.30;99.90;;;;;;4981746;28;20054;-66
2023/08/03 11:29:49;;;;;;;0.00;0.00;;;24.40;99.90;;;;;;4979297;28;20558;-66
2023/08/03 11:32:25;;;;;;;0.00;0.00;;;24.50;99.90;;;;;;4983836;28;20432;-66
2023/08/03 11:35:03;;;;;;;0.00;0.00;;;24.50;99.90;;;;;;4983234;28;20051;-66
2023/08/03 11:37:33;;;;;;;0.08;0.00;;;24.60;99.90;;;;;;4982352;28;20038;-66
2023/08/03 11:40:00;;;;;;;0.00;0.00;;;24.90;99.90;;;;;;4977576;28;20042;-66
2023/08/03 11:42:27;;;;;;;0.10;0.00;;;25.20;99.90;;;;;;4986754;28;20035;-66
2023/08/03 11:44:53;;;;;;;0.00;0.00;;;25.30;99.90;;;;;;4983538;28;20057;-66
2023/08/03 11:47:19;;;;;;;0.00;0.00;;;25.50;99.90;;;;;;4981472;28;20038;-66
2023/08/03 11:49:48;;;;;;;0.00;0.00;;;25.60;99.90;;;;;;4981422;28;20027;-66
2023/08/03 11:52:21;;;;;;;1.42;0.22;;;25.70;99.90;;;;;;4983493;28;20492;-66
2023/08/03 11:54:48;;;;;;;0.00;0.00;;;26.00;99.90;;;;;;4980653;28;20106;-66
2023/08/03 11:59:58;;;;;;;0.45;0.10;;;26.20;99.90;;;;;;4974187;28;20130;-66
2023/08/03 12:02:43;;;;;;;0.28;0.10;;;26.10;99.90;;;;;;4984486;28;20132;-66
2023/08/03 12:05:09;;;;;;;0.08;0.00;;;25.80;99.90;;;;;;4985296;28;20046;-66
2023/08/03 12:07:35;;;;;;;0.90;0.10;;;25.90;99.90;;;;;;4981768;28;20545;-66
2023/08/03 12:10:08;;;;;;;0.30;0.30;;;26.00;99.90;;;;;;4975046;28;20066;-66
2023/08/03 12:12:33;;;;;;;0.47;0.03;;;26.10;99.90;;;;;;4986253;28;20046;-66
2023/08/03 12:14:59;;;;;;;0.17;0.10;;;26.20;99.90;;;;;;4980017;28;20364;-66
2023/08/03 12:17:25;;;;;;;0.32;0.15;;;26.10;99.90;;;;;;4980150;28;20058;-66
2023/08/03 12:19:50;;;;;;;0.30;0.10;;;26.20;99.90;;;;;;4975070;28;20404;-66
2023/08/03 12:22:16;;;;;;;0.10;0.00;;;26.50;99.90;;;;;;4984267;28;20076;-66
2023/08/03 12:24:42;;;;;;;0.00;0.00;;;26.80;99.90;;;;;;4984686;28;20041;-66
2023/08/03 12:27:08;;;;;;;0.28;0.20;;;26.40;99.90;;;;;;4981286;28;20038;-66
2023/08/03 12:29:33;;;;;;;0.77;0.15;;;25.70;99.90;;;;;;4975496;28;20121;-66
2023/08/03 12:31:59;;;;;;;0.28;0.00;;;25.00;99.90;;;;;;4983282;28;20057;-66
2023/08/03 12:34:26;;;;;;;0.30;0.10;;;24.20;99.90;;;;;;4986489;28;20035;-66
2023/08/03 12:36:52;;;;;;;0.03;0.00;;;23.50;99.90;;;;;;4980592;28;20487;-66
2023/08/03 12:39:18;;;;;;;0.35;0.00;;;23.20;99.90;;;;;;4976840;28;20058;-66
2023/08/03 12:41:45;;;;;;;0.00;0.00;;;23.00;99.90;;;;;;4983734;28;20093;-65
2023/08/03 12:44:11;;;;;;;1.08;0.13;;;23.20;99.90;;;;;;4986428;28;20038;-66
2023/08/03 12:46:37;;;;;;;0.00;0.00;;;23.60;99.90;;;;;;4986969;28;20038;-66
2023/08/03 12:49:03;;;;;;;0.00;0.00;;;23.90;99.90;;;;;;4980240;28;20058;-67